Philadelphia, Pennsylvania
Traffic Map
Current Weather Conditions
Philadelphia, Pennsylvania
Broken Clouds
Broken Clouds

Feels Like: 0°
Wind Chill: Ceiling: 4000
Heat Index: Visibility: 10mi
Dew Point: -5° Wind: 15mph
Humidity: 51% Direction: 310° (NW)
Pressure: 30.04in Gusts: 24mph
Raw Report DataKPHL 182054Z 31013G21KT 10SM BKN040 BKN250 04/M05 A3004 RMK AO2 SLP170 T00441050 55005
Traffic Incident Summary
Active as of:
Severity:
Category:
InformationThere was an issue retrieving the traffic information for this location. Please try a different location or try again shortly.
Advertisements
Track Severe Weather on mobile